createdAt,value
2023-11-24T00:04:45.525Z,8.10
2023-11-24T00:14:48.763Z,16.50
2023-11-24T00:24:53.377Z,20.23
2023-11-24T00:34:57.775Z,17.23
2023-11-24T00:45:02.543Z,18.17
2023-11-24T00:55:06.787Z,15.10
2023-11-24T01:05:15.456Z,17.10
2023-11-24T01:15:19.042Z,25.10
2023-11-24T01:25:24.140Z,20.17
2023-11-24T01:35:27.292Z,23.60
2023-11-24T01:45:32.876Z,25.60
2023-11-24T01:55:36.614Z,27.50
2023-11-24T02:05:41.407Z,23.77
2023-11-24T02:15:45.681Z,24.03
2023-11-24T02:25:50.351Z,16.07
2023-11-24T02:35:55.343Z,23.50
2023-11-24T02:45:59.689Z,30.50
2023-11-24T02:56:02.738Z,21.80
2023-11-24T03:06:07.668Z,19.03
2023-11-24T03:16:12.066Z,18.40
2023-11-24T03:26:16.403Z,25.60
2023-11-24T03:36:19.819Z,15.03
2023-11-24T03:46:24.618Z,13.47
2023-11-24T03:56:28.025Z,17.40
2023-11-24T04:06:32.577Z,18.07
2023-11-24T04:16:35.745Z,25.33
2023-11-24T04:26:40.377Z,22.43
2023-11-24T04:36:43.738Z,17.00
2023-11-24T04:46:48.355Z,17.53
2023-11-24T04:56:51.740Z,11.30
2023-11-24T05:06:56.277Z,16.37
2023-11-24T05:17:01.028Z,11.83
2023-11-24T05:27:06.441Z,21.37
2023-11-24T05:37:10.993Z,16.67
2023-11-24T05:47:15.747Z,13.10
2023-11-24T05:57:19.776Z,13.67
2023-11-24T06:07:25.859Z,14.63
2023-11-24T06:17:29.134Z,15.53
2023-11-24T06:27:34.161Z,10.80
2023-11-24T06:37:37.228Z,11.93
2023-11-24T06:47:42.356Z,17.77
2023-11-24T06:57:45.586Z,16.43
2023-11-24T07:07:50.308Z,10.60
2023-11-24T07:17:53.677Z,16.33
2023-11-24T07:27:58.303Z,14.33
2023-11-24T07:38:02.175Z,8.97
2023-11-24T07:48:08.407Z,14.07
2023-11-24T07:58:12.803Z,12.60
2023-11-24T08:08:17.917Z,12.43
2023-11-24T08:18:22.554Z,21.87
2023-11-24T08:28:27.448Z,20.33
2023-11-24T08:38:30.863Z,19.20
2023-11-24T08:48:35.947Z,4.67
2023-11-24T08:58:40.116Z,5.20
2023-11-24T09:08:46.557Z,16.63
2023-11-24T09:18:50.802Z,6.83
2023-11-24T09:28:56.250Z,14.57
2023-11-24T09:38:59.911Z,17.40
2023-11-24T09:49:06.917Z,9.17
2023-11-24T09:59:10.878Z,14.60
2023-11-24T10:09:26.619Z,7.27
2023-11-24T10:19:29.879Z,8.90
2023-11-24T10:29:36.085Z,14.17
2023-11-24T10:39:45.391Z,5.53
2023-11-24T10:50:11.251Z,4.40
2023-11-24T11:00:21.366Z,7.07
2023-11-24T11:11:16.442Z,5.87
2023-11-24T11:21:41.081Z,4.70
2023-11-24T11:31:47.975Z,4.43
2023-11-24T11:41:54.382Z,5.60
2023-11-24T11:52:05.498Z,7.03
2023-11-24T12:02:15.957Z,7.37
2023-11-24T12:12:24.406Z,2.07
2023-11-24T12:22:31.457Z,4.63
2023-11-24T12:32:34.708Z,5.20
2023-11-24T12:42:39.653Z,6.73
2023-11-24T12:52:45.379Z,6.33
2023-11-24T13:02:50.688Z,2.60
2023-11-24T13:12:55.506Z,9.63
2023-11-24T13:23:01.085Z,7.70
2023-11-24T13:33:05.937Z,13.27
2023-11-24T13:43:12.148Z,6.97
2023-11-24T13:53:16.130Z,9.63
2023-11-24T14:03:20.854Z,5.80
2023-11-24T14:13:24.421Z,13.80
2023-11-24T14:23:31.146Z,10.27
2023-11-24T14:33:35.213Z,17.40
2023-11-24T14:43:40.134Z,11.67
2023-11-24T14:53:43.356Z,4.13
2023-11-24T15:03:50.074Z,5.27
2023-11-24T15:13:55.031Z,11.83
2023-11-24T15:23:59.818Z,6.70
2023-11-24T15:34:03.542Z,8.27
2023-11-24T15:44:11.677Z,7.87
2023-11-24T15:54:16.416Z,9.87
2023-11-24T16:04:22.921Z,4.90
2023-11-24T16:14:27.295Z,5.07
2023-11-24T16:24:32.657Z,6.07
2023-11-24T16:34:37.006Z,2.40
2023-11-24T16:44:41.986Z,4.67
2023-11-24T16:54:45.312Z,4.17
2023-11-24T17:04:49.716Z,9.97
2023-11-24T17:14:53.289Z,6.07
2023-11-24T17:24:58.152Z,1.70
2023-11-24T17:35:01.899Z,3.50
2023-11-24T17:45:16.162Z,9.23
2023-11-24T17:55:20.232Z,16.00
2023-11-24T18:05:24.834Z,16.40
2023-11-24T18:15:28.509Z,9.53
2023-11-24T18:25:36.247Z,12.10
2023-11-24T18:35:40.384Z,11.13
2023-11-24T18:45:45.315Z,10.00
2023-11-24T18:55:48.818Z,11.63
2023-11-24T19:05:53.854Z,5.90
2023-11-24T19:15:58.324Z,5.17
2023-11-24T19:26:03.038Z,5.57
2023-11-24T19:36:07.275Z,6.40
2023-11-24T19:46:11.814Z,14.37
2023-11-24T19:56:16.201Z,11.60
2023-11-24T20:06:21.197Z,11.50
2023-11-24T20:16:24.837Z,13.67
2023-11-24T20:26:29.471Z,20.30
2023-11-24T20:36:35.117Z,8.63
2023-11-24T20:46:40.730Z,8.10
2023-11-24T20:56:45.859Z,6.27
2023-11-24T21:06:50.773Z,8.50
2023-11-24T21:16:55.079Z,12.53
2023-11-24T21:27:02.026Z,7.77
2023-11-24T21:37:07.427Z,6.53
2023-11-24T21:47:12.380Z,7.20
2023-11-24T21:57:16.196Z,8.57
2023-11-24T22:07:24.019Z,9.03
2023-11-24T22:17:28.169Z,7.73
2023-11-24T22:27:33.505Z,9.67
2023-11-24T22:37:36.968Z,14.57
2023-11-24T22:47:43.603Z,10.17
2023-11-24T22:57:47.417Z,7.27
2023-11-24T23:07:53.207Z,7.17
2023-11-24T23:17:57.127Z,9.70
2023-11-24T23:28:02.020Z,13.60
2023-11-24T23:38:05.703Z,9.13
2023-11-24T23:48:11.031Z,8.03
2023-11-24T23:58:14.276Z,8.13
